Time;durP1;ratioP1;P1;durP2;ratioP2;P2;SDS_P1;SDS_P2;PMS_P1;PMS_P2;Temp;Humidity;BMP_temperature;BMP_pressure;BME280_temperature;BME280_humidity;BME280_pressure;Samples;Min_cycle;Max_cycle;Signal;HPM_P1;HPM_P2
2022/09/23 00:01:10;;;;;;;2.95;2.05;;;10.30;99.90;;;;;;5008200;28;20057;-83
2022/09/23 00:03:40;;;;;;;3.33;1.90;;;10.30;99.90;;;;;;5004253;28;20053;-84
2022/09/23 00:06:09;;;;;;;;;;;10.30;99.90;;;;;;5012234;28;20049;-83
2022/09/23 00:08:37;;;;;;;4.70;1.83;;;10.30;99.90;;;;;;4996932;28;19922;-84
2022/09/23 00:11:10;;;;;;;7.80;1.92;;;10.30;99.90;;;;;;5007821;28;20110;-83
2022/09/23 00:13:39;;;;;;;2.97;2.00;;;10.30;99.90;;;;;;4995409;28;20496;-82
2022/09/23 00:16:09;;;;;;;4.50;2.17;;;10.30;99.90;;;;;;4995540;28;20066;-83
2022/09/23 00:18:36;;;;;;;3.83;1.50;;;10.30;99.90;;;;;;5007968;28;20046;-83
2022/09/23 00:21:08;;;;;;;7.40;2.22;;;10.20;99.90;;;;;;4996837;28;20492;-82
2022/09/23 00:23:36;;;;;;;2.70;1.77;;;10.20;99.90;;;;;;5005008;28;20050;-82
2022/09/23 00:26:05;;;;;;;2.90;1.90;;;10.10;99.90;;;;;;4983681;28;20046;-83
2022/09/23 00:28:33;;;;;;;3.42;2.20;;;10.10;99.90;;;;;;5002803;28;20050;-83
2022/09/23 00:31:23;;;;;;;10.15;2.13;;;10.10;99.90;;;;;;4994213;28;20053;-81
2022/09/23 00:33:58;;;;;;;9.00;3.60;;;10.10;99.90;;;;;;5006640;28;20133;-83
2022/09/23 00:36:28;;;;;;;5.03;2.10;;;10.10;99.90;;;;;;5002706;28;20074;-84
2022/09/23 00:38:55;;;;;;;5.35;1.83;;;10.00;99.90;;;;;;5013448;28;20414;-83
2022/09/23 00:41:22;;;;;;;1.95;1.67;;;10.00;99.90;;;;;;4994739;28;20058;-83
2022/09/23 00:43:52;;;;;;;4.00;2.00;;;10.00;99.90;;;;;;4990047;28;20053;-83
2022/09/23 00:46:34;;;;;;;6.43;2.03;;;10.00;99.90;;;;;;5002479;28;20042;-83
2022/09/23 00:49:10;;;;;;;2.42;1.65;;;10.00;99.90;;;;;;4985270;28;20551;-81
2022/09/23 00:51:42;;;;;;;3.58;1.80;;;10.00;99.90;;;;;;5011573;28;20050;-83
2022/09/23 00:54:09;;;;;;;2.38;1.60;;;10.00;99.90;;;;;;5007245;28;20411;-84
2022/09/23 00:56:38;;;;;;;5.30;2.15;;;10.00;99.90;;;;;;5017230;28;20136;-83
2022/09/23 00:59:08;;;;;;;3.75;2.20;;;10.00;99.90;;;;;;4980745;28;20141;-82
2022/09/23 01:01:36;;;;;;;2.80;2.05;;;10.00;99.90;;;;;;4991544;28;20048;-83
2022/09/23 01:04:03;;;;;;;5.13;1.95;;;10.00;99.90;;;;;;5007357;28;20054;-83
2022/09/23 01:06:30;;;;;;;2.30;2.10;;;10.00;99.90;;;;;;5003209;28;20081;-84
2022/09/23 01:08:57;;;;;;;5.05;2.40;;;9.90;99.90;;;;;;4980626;28;20054;-83
2022/09/23 01:11:41;;;;;;;2.75;2.17;;;9.90;99.90;;;;;;5006401;28;20054;-83
2022/09/23 01:14:30;;;;;;;2.92;2.10;;;9.90;99.90;;;;;;5000632;28;20418;-83
2022/09/23 01:17:18;;;;;;;3.20;2.10;;;9.90;99.90;;;;;;4993989;28;20132;-83
2022/09/23 01:19:48;;;;;;;4.03;2.17;;;9.90;99.90;;;;;;5012279;28;20050;-83
2022/09/23 01:22:43;;;;;;;2.58;2.08;;;9.90;99.90;;;;;;5008322;28;20129;-83
2022/09/23 01:25:31;;;;;;;4.70;1.98;;;9.90;99.90;;;;;;4996412;28;20061;-82
2022/09/23 01:28:17;;;;;;;3.08;1.80;;;9.90;99.90;;;;;;5005542;28;20061;-82
2022/09/23 01:31:00;;;;;;;3.72;2.10;;;9.90;99.90;;;;;;5011692;28;20145;-82
2022/09/23 01:33:53;;;;;;;2.30;1.95;;;9.90;99.90;;;;;;5011234;28;20396;-82
2022/09/23 01:36:38;;;;;;;3.60;1.83;;;9.90;99.90;;;;;;4979647;28;20058;-83
2022/09/23 01:39:23;;;;;;;3.10;1.88;;;9.90;99.90;;;;;;4992908;28;20061;-83
2022/09/23 01:41:57;;;;;;;2.85;2.10;;;9.90;99.90;;;;;;5019492;28;20061;-82
2022/09/23 01:44:34;;;;;;;3.55;2.08;;;9.90;99.90;;;;;;4992248;28;20050;-83
2022/09/23 01:47:05;;;;;;;1.98;1.83;;;9.80;99.90;;;;;;5002714;28;20129;-83
2022/09/23 01:49:50;;;;;;;3.42;2.13;;;9.90;99.90;;;;;;4984266;28;20482;-82
2022/09/23 01:52:37;;;;;;;2.20;1.60;;;9.90;99.90;;;;;;4992352;28;20045;-82
2022/09/23 01:55:17;;;;;;;3.58;2.03;;;9.80;99.90;;;;;;4992342;28;20057;-81
2022/09/23 01:58:03;;;;;;;2.33;1.92;;;9.80;99.90;;;;;;5003125;28;20072;-82
2022/09/23 02:00:36;;;;;;;2.65;1.92;;;9.80;99.90;;;;;;5008058;28;20064;-83
2022/09/23 02:03:19;;;;;;;3.70;1.98;;;9.80;99.90;;;;;;5027310;28;20520;-83
2022/09/23 02:05:52;;;;;;;4.45;2.08;;;9.70;99.90;;;;;;5008554;28;20042;-83
2022/09/23 02:08:40;;;;;;;3.97;2.10;;;9.70;99.90;;;;;;4986316;28;20051;-81
2022/09/23 02:11:14;;;;;;;4.70;2.00;;;9.70;99.90;;;;;;5009198;28;20052;-83
2022/09/23 02:14:02;;;;;;;3.10;1.90;;;9.70;99.90;;;;;;5013020;28;20054;-84
2022/09/23 02:16:38;;;;;;;3.85;2.20;;;9.60;99.90;;;;;;4990980;28;20054;-83
2022/09/23 02:19:36;;;;;;;3.88;1.80;;;9.60;99.90;;;;;;5003366;28;20127;-84
2022/09/23 02:22:08;;;;;;;2.08;1.75;;;9.60;99.90;;;;;;4998467;28;20129;-81
2022/09/23 02:24:38;;;;;;;5.15;1.85;;;9.60;99.90;;;;;;5020324;28;20053;-83
2022/09/23 02:27:17;;;;;;;5.75;2.45;;;9.60;99.90;;;;;;5005282;28;20046;-83
2022/09/23 02:30:07;;;;;;;4.25;1.90;;;9.60;99.90;;;;;;5002287;28;20062;-83
2022/09/23 02:32:53;;;;;;;;;;;9.60;99.90;;;;;;5012964;28;20073;-83
2022/09/23 02:35:31;;;;;;;3.63;2.08;;;9.50;99.90;;;;;;5006837;28;19931;-82
2022/09/23 02:38:17;;;;;;;2.63;2.00;;;9.50;99.90;;;;;;4992469;28;20133;-82
2022/09/23 02:40:54;;;;;;;3.67;2.20;;;9.50;99.90;;;;;;5003628;28;20058;-82
2022/09/23 02:43:45;;;;;;;4.18;2.20;;;9.50;99.90;;;;;;5012754;28;20046;-83
2022/09/23 02:46:12;;;;;;;3.00;2.22;;;9.50;99.90;;;;;;5007254;28;20060;-82
2022/09/23 02:48:55;;;;;;;4.22;2.53;;;9.50;99.90;;;;;;5003478;28;20051;-84
2022/09/23 02:51:27;;;;;;;2.67;2.13;;;9.50;99.90;;;;;;5006012;28;20423;-83
2022/09/23 02:53:56;;;;;;;2.20;2.00;;;9.50;99.90;;;;;;5001570;28;20119;-83
2022/09/23 02:56:23;;;;;;;3.25;1.88;;;9.50;99.90;;;;;;5009546;28;20058;-83
2022/09/23 02:58:53;;;;;;;3.13;2.13;;;9.50;99.90;;;;;;5011667;28;20451;-83
2022/09/23 03:01:36;;;;;;;3.92;2.03;;;9.50;99.90;;;;;;5007144;28;20054;-83
2022/09/23 03:04:25;;;;;;;3.85;2.13;;;9.50;99.90;;;;;;5016837;28;20054;-84
2022/09/23 03:07:12;;;;;;;4.97;2.55;;;9.50;99.90;;;;;;4994476;28;20483;-83
2022/09/23 03:09:53;;;;;;;4.72;2.53;;;9.50;99.90;;;;;;5018447;28;20133;-84
2022/09/23 03:12:43;;;;;;;4.00;2.13;;;9.50;99.90;;;;;;4988385;28;20057;-83
2022/09/23 03:15:40;;;;;;;3.55;2.28;;;9.50;99.90;;;;;;5011603;28;20057;-83
2022/09/23 03:18:24;;;;;;;2.53;2.33;;;9.50;99.90;;;;;;4997765;28;20054;-83
2022/09/23 03:20:56;;;;;;;3.08;2.33;;;9.50;99.90;;;;;;5008755;28;20054;-83
2022/09/23 03:23:30;;;;;;;6.00;2.35;;;9.40;99.90;;;;;;5008824;28;20065;-82
2022/09/23 03:26:00;;;;;;;3.80;2.67;;;9.40;99.90;;;;;;4981071;28;20129;-83
2022/09/23 03:28:28;;;;;;;3.60;2.42;;;9.40;99.90;;;;;;5012940;28;20109;-84
2022/09/23 03:30:58;;;;;;;3.30;2.17;;;9.40;99.90;;;;;;5009236;28;20060;-81
2022/09/23 03:33:28;;;;;;;4.22;2.47;;;9.40;99.90;;;;;;5005802;28;20136;-84
2022/09/23 03:39:02;;;;;;;3.25;2.22;;;9.40;99.90;;;;;;5010492;28;20499;-83
2022/09/23 03:41:35;;;;;;;3.63;2.20;;;9.40;99.90;;;;;;5025367;28;20141;-83
2022/09/23 03:44:02;;;;;;;2.55;2.13;;;9.40;99.90;;;;;;4986863;28;20487;-82
2022/09/23 03:46:29;;;;;;;5.43;3.20;;;9.40;99.90;;;;;;4981582;28;20050;-83
2022/09/23 03:49:05;;;;;;;6.60;2.65;;;9.40;99.90;;;;;;4992654;28;20050;-83
2022/09/23 03:51:32;;;;;;;2.90;2.40;;;9.40;99.90;;;;;;5009982;28;20050;-83
2022/09/23 03:53:58;;;;;;;5.22;2.70;;;9.40;99.90;;;;;;5004800;28;20050;-82
2022/09/23 03:56:25;;;;;;;6.07;2.33;;;9.30;99.90;;;;;;5000401;28;20058;-83
2022/09/23 03:58:52;;;;;;;6.85;2.40;;;9.30;99.90;;;;;;4990544;28;20058;-83
2022/09/23 04:01:18;;;;;;;3.35;2.10;;;9.60;99.90;;;;;;4994772;28;20058;-83
2022/09/23 04:03:45;;;;;;;2.70;2.00;;;9.30;99.90;;;;;;5022742;28;20050;-82
2022/09/23 04:06:12;;;;;;;2.92;2.10;;;9.30;99.90;;;;;;5008225;28;20044;-83
2022/09/23 04:08:39;;;;;;;4.75;2.53;;;9.30;99.90;;;;;;5005273;28;20058;-83
2022/09/23 04:11:05;;;;;;;4.13;2.75;;;9.30;99.90;;;;;;5008581;28;20050;-83
2022/09/23 04:13:33;;;;;;;6.20;3.00;;;9.30;99.90;;;;;;5008926;28;20463;-83
2022/09/23 04:16:00;;;;;;;5.28;2.83;;;9.30;99.90;;;;;;5005219;28;20054;-84
2022/09/23 04:18:27;;;;;;;3.88;2.55;;;9.30;99.90;;;;;;4996741;28;20046;-83
2022/09/23 04:20:58;;;;;;;3.80;2.60;;;9.30;99.90;;;;;;4991821;28;20050;-83
2022/09/23 04:23:26;;;;;;;4.53;2.30;;;9.30;99.90;;;;;;4990337;28;20060;-83
2022/09/23 04:25:53;;;;;;;3.80;2.65;;;9.30;99.90;;;;;;4991022;28;20493;-83
2022/09/23 04:28:21;;;;;;;5.03;2.40;;;9.30;99.90;;;;;;5014972;28;20073;-83
2022/09/23 04:30:48;;;;;;;3.08;2.20;;;9.20;99.90;;;;;;5016631;28;20054;-83
2022/09/23 04:33:16;;;;;;;5.30;2.58;;;9.20;99.90;;;;;;5011689;28;20096;-83
2022/09/23 04:35:42;;;;;;;4.45;2.58;;;9.20;99.90;;;;;;4999186;28;20050;-82
2022/09/23 04:38:12;;;;;;;6.00;2.47;;;9.20;99.90;;;;;;4999294;28;20050;-82
2022/09/23 04:40:39;;;;;;;4.53;2.42;;;9.20;99.90;;;;;;5022874;28;20045;-82
2022/09/23 04:43:05;;;;;;;9.60;2.92;;;9.30;99.90;;;;;;5014185;28;20644;-82
2022/09/23 04:45:38;;;;;;;4.10;2.75;;;9.20;99.90;;;;;;4993300;28;20112;-82
2022/09/23 04:48:05;;;;;;;3.28;2.45;;;9.20;99.90;;;;;;4987763;28;20057;-82
2022/09/23 04:50:32;;;;;;;4.43;2.28;;;9.30;99.90;;;;;;4986698;28;20518;-82
2022/09/23 04:52:59;;;;;;;3.08;2.22;;;9.20;99.90;;;;;;5017461;28;20049;-82
2022/09/23 04:55:26;;;;;;;3.88;2.60;;;9.30;99.90;;;;;;5013512;28;20050;-82
2022/09/23 04:57:53;;;;;;;4.70;2.88;;;9.20;99.90;;;;;;4996320;28;20499;-82
2022/09/23 05:00:22;;;;;;;3.15;2.03;;;9.20;99.90;;;;;;5031809;28;20049;-82
2022/09/23 05:02:49;;;;;;;6.50;2.70;;;9.20;99.90;;;;;;5015187;28;20513;-82
2022/09/23 05:05:22;;;;;;;5.25;2.30;;;9.20;99.90;;;;;;5011399;28;20046;-83
2022/09/23 05:07:50;;;;;;;3.03;2.33;;;9.20;99.90;;;;;;4988576;28;20114;-82
2022/09/23 05:10:16;;;;;;;4.50;2.45;;;9.20;99.90;;;;;;5001171;28;20065;-83
2022/09/23 05:12:43;;;;;;;3.42;2.33;;;9.10;99.90;;;;;;4994689;28;20504;-82
2022/09/23 05:15:14;;;;;;;3.25;2.55;;;9.20;99.90;;;;;;4998263;28;20050;-81
2022/09/23 05:17:42;;;;;;;4.35;3.00;;;9.10;99.90;;;;;;4987550;28;20093;-83
2022/09/23 05:20:10;;;;;;;7.57;3.90;;;9.20;99.90;;;;;;4999778;28;20051;-83
2022/09/23 05:22:36;;;;;;;6.03;2.53;;;9.20;99.90;;;;;;5007925;28;20046;-83
2022/09/23 05:25:03;;;;;;;5.57;2.85;;;9.10;99.90;;;;;;5014185;28;20058;-83
2022/09/23 05:27:30;;;;;;;4.97;3.08;;;9.20;99.90;;;;;;4992633;28;20096;-83
2022/09/23 05:29:57;;;;;;;6.95;3.17;;;9.20;99.90;;;;;;5003818;28;20468;-83
2022/09/23 05:32:25;;;;;;;4.40;3.28;;;9.20;99.90;;;;;;5002798;28;20479;-83
2022/09/23 05:34:53;;;;;;;6.80;3.85;;;9.20;99.90;;;;;;5016062;28;20046;-82
2022/09/23 05:37:20;;;;;;;7.82;7.03;;;9.20;99.90;;;;;;5011642;28;20113;-82
2022/09/23 05:39:47;;;;;;;5.22;4.63;;;9.20;99.90;;;;;;5017495;28;20439;-82
2022/09/23 05:42:15;;;;;;;7.03;4.75;;;9.30;99.90;;;;;;5015423;28;20407;-80
2022/09/23 05:44:42;;;;;;;8.10;5.03;;;9.30;99.90;;;;;;5009301;28;20056;-79
2022/09/23 05:47:08;;;;;;;6.60;4.68;;;9.30;99.90;;;;;;5012722;28;20049;-80
2022/09/23 05:49:35;;;;;;;8.05;4.72;;;9.30;99.90;;;;;;4994738;28;20532;-79
2022/09/23 05:52:22;;;;;;;8.48;5.18;;;9.30;99.90;;;;;;4992010;28;20069;-80
2022/09/23 05:54:49;;;;;;;10.50;4.93;;;9.30;99.90;;;;;;5004309;28;20046;-79
2022/09/23 05:57:16;;;;;;;8.95;4.70;;;9.40;99.90;;;;;;5003788;28;20409;-79
2022/09/23 05:59:46;;;;;;;7.25;4.03;;;9.40;99.90;;;;;;5007506;28;20046;-79
2022/09/23 06:02:13;;;;;;;7.03;3.60;;;9.40;99.90;;;;;;5013196;28;20073;-79
2022/09/23 06:04:41;;;;;;;6.38;3.47;;;9.40;99.90;;;;;;5009767;28;20050;-79
2022/09/23 06:07:08;;;;;;;5.63;3.78;;;9.40;99.90;;;;;;5009744;28;20053;-79
2022/09/23 06:09:35;;;;;;;6.63;3.55;;;9.50;99.90;;;;;;5015715;28;20056;-79
2022/09/23 06:12:03;;;;;;;7.60;4.20;;;9.50;99.90;;;;;;5011858;28;20707;-79
2022/09/23 06:14:29;;;;;;;8.00;4.43;;;9.50;99.90;;;;;;5010221;28;20125;-80
2022/09/23 06:16:56;;;;;;;4.47;3.75;;;9.50;99.90;;;;;;5006186;28;20470;-79
2022/09/23 06:19:23;;;;;;;6.93;3.70;;;9.60;99.90;;;;;;5013613;28;20073;-79
2022/09/23 06:21:49;;;;;;;7.45;3.97;;;9.60;99.90;;;;;;5017660;28;20050;-79
2022/09/23 06:24:16;;;;;;;5.15;3.42;;;9.60;99.90;;;;;;5023305;28;20580;-79
2022/09/23 06:26:48;;;;;;;7.55;4.40;;;9.60;99.90;;;;;;5005817;28;20129;-80
2022/09/23 06:29:15;;;;;;;6.05;4.13;;;9.70;99.90;;;;;;5018900;28;20058;-79
2022/09/23 06:31:42;;;;;;;7.65;4.40;;;9.70;99.90;;;;;;5005434;28;20054;-80
2022/09/23 06:34:10;;;;;;;5.93;4.82;;;9.80;99.90;;;;;;5000704;28;20057;-80
2022/09/23 06:36:42;;;;;;;5.10;4.43;;;9.80;99.90;;;;;;5003718;28;20108;-79
2022/09/23 06:39:13;;;;;;;8.45;4.45;;;9.80;99.90;;;;;;4999606;28;20050;-79
2022/09/23 06:41:40;;;;;;;5.20;4.22;;;9.90;99.90;;;;;;5015066;28;20058;-80
2022/09/23 06:44:07;;;;;;;7.53;3.85;;;9.90;99.90;;;;;;5011031;28;20458;-80
2022/09/23 06:46:35;;;;;;;8.75;4.28;;;9.90;99.90;;;;;;5015593;28;20049;-80
2022/09/23 06:49:02;;;;;;;5.85;3.92;;;10.00;99.90;;;;;;5021761;28;20122;-80
2022/09/23 06:51:29;;;;;;;5.47;3.15;;;10.00;99.90;;;;;;5016616;28;20081;-80
2022/09/23 06:53:55;;;;;;;5.88;3.38;;;10.10;99.90;;;;;;5011224;28;20047;-80
2022/09/23 06:56:23;;;;;;;5.78;3.25;;;10.10;99.90;;;;;;4990264;28;20049;-80
2022/09/23 06:58:53;;;;;;;6.50;3.28;;;10.20;99.90;;;;;;5018190;28;20045;-77
2022/09/23 07:01:21;;;;;;;5.45;3.47;;;10.20;99.90;;;;;;5010636;28;20574;-79
2022/09/23 07:03:47;;;;;;;5.97;3.63;;;10.30;99.90;;;;;;5013527;28;20057;-79
2022/09/23 07:06:15;;;;;;;6.45;4.53;;;10.30;99.90;;;;;;5018111;28;20068;-80
2022/09/23 07:08:45;;;;;;;7.18;4.63;;;10.30;99.90;;;;;;5020530;28;20077;-79
2022/09/23 07:11:13;;;;;;;7.82;3.90;;;10.40;99.90;;;;;;5015025;28;20038;-80
2022/09/23 07:13:41;;;;;;;3.95;3.20;;;10.40;99.90;;;;;;5007651;28;20053;-79
2022/09/23 07:16:09;;;;;;;6.78;4.03;;;10.50;99.90;;;;;;4986960;28;20639;-80
2022/09/23 07:18:37;;;;;;;8.15;5.82;;;10.50;99.90;;;;;;5016727;28;20108;-80
2022/09/23 07:21:08;;;;;;;17.13;8.68;;;10.60;99.90;;;;;;5013315;28;20056;-79
2022/09/23 07:23:36;;;;;;;12.13;7.78;;;10.60;99.90;;;;;;5015917;28;20110;-79
2022/09/23 07:26:04;;;;;;;14.48;7.85;;;10.60;99.90;;;;;;5006096;28;20050;-80
2022/09/23 07:28:31;;;;;;;11.20;6.05;;;10.70;99.90;;;;;;5023980;28;20518;-80
2022/09/23 07:31:06;;;;;;;11.77;6.15;;;10.70;99.90;;;;;;5019560;28;20065;-79
2022/09/23 07:33:35;;;;;;;12.88;6.10;;;10.80;99.90;;;;;;5013373;28;20058;-80
2022/09/23 07:36:07;;;;;;;11.43;6.10;;;10.80;99.90;;;;;;5010709;28;20050;-79
2022/09/23 07:38:35;;;;;;;10.35;6.05;;;10.90;99.90;;;;;;5028601;28;20073;-80
2022/09/23 07:41:09;;;;;;;12.25;5.90;;;10.90;99.90;;;;;;5034291;28;20129;-79
2022/09/23 07:43:37;;;;;;;12.80;6.10;;;10.90;99.90;;;;;;5015656;28;20054;-80
2022/09/23 07:46:07;;;;;;;11.05;5.20;;;10.90;99.90;;;;;;5012378;28;20060;-80
2022/09/23 07:48:36;;;;;;;10.27;5.32;;;11.00;99.90;;;;;;5011294;28;20046;-79
2022/09/23 07:51:17;;;;;;;11.02;4.90;;;11.00;99.90;;;;;;5009071;28;20050;-79
2022/09/23 07:53:47;;;;;;;9.27;5.10;;;11.10;99.90;;;;;;5014367;28;20050;-79
2022/09/23 07:56:14;;;;;;;18.75;5.35;;;11.10;99.90;;;;;;5009499;28;20042;-79
2022/09/23 07:58:41;;;;;;;8.27;5.18;;;11.20;99.90;;;;;;5009088;28;20073;-79
2022/09/23 08:01:10;;;;;;;11.95;4.50;;;11.20;99.90;;;;;;5006293;28;20485;-79
2022/09/23 08:03:38;;;;;;;9.30;4.50;;;11.30;99.90;;;;;;5010770;28;20424;-79
2022/09/23 08:06:10;;;;;;;8.30;4.72;;;11.30;99.90;;;;;;5031871;28;20300;-79
2022/09/23 08:08:42;;;;;;;9.60;4.78;;;11.40;99.90;;;;;;5006860;28;20050;-79
2022/09/23 08:11:12;;;;;;;8.85;4.07;;;11.50;99.90;;;;;;4999866;28;20125;-79
2022/09/23 08:13:39;;;;;;;6.47;4.20;;;11.60;99.90;;;;;;4994555;28;20077;-78
2022/09/23 08:16:06;;;;;;;11.25;4.47;;;11.70;99.90;;;;;;5007974;28;20050;-79
2022/09/23 08:18:33;;;;;;;11.50;4.43;;;11.80;99.90;;;;;;5004427;28;20101;-79
2022/09/23 08:21:00;;;;;;;12.55;4.28;;;11.80;99.90;;;;;;5011506;28;20505;-78
2022/09/23 08:23:32;;;;;;;6.20;3.42;;;11.90;99.90;;;;;;5015183;28;20071;-78
2022/09/23 08:26:01;;;;;;;5.68;3.17;;;12.00;99.90;;;;;;4993240;28;20078;-81
2022/09/23 08:28:29;;;;;;;2.85;2.33;;;12.10;99.90;;;;;;5008346;28;20139;-80
2022/09/23 08:30:56;;;;;;;2.63;2.05;;;12.20;99.90;;;;;;4992862;28;20403;-79
2022/09/23 08:33:23;;;;;;;5.00;2.35;;;12.40;99.90;;;;;;5003308;28;20056;-79
2022/09/23 08:35:50;;;;;;;3.55;1.83;;;12.50;99.90;;;;;;5030160;28;20109;-80
2022/09/23 08:38:18;;;;;;;4.03;2.10;;;12.60;99.90;;;;;;5004045;28;20148;-80
2022/09/23 08:40:48;;;;;;;4.40;2.30;;;12.70;99.90;;;;;;5004569;28;20503;-80
2022/09/23 08:43:22;;;;;;;;;;;12.80;99.90;;;;;;5006409;28;20484;-79
2022/09/23 08:45:50;;;;;;;3.83;2.08;;;12.90;99.90;;;;;;5012845;28;20024;-80
2022/09/23 08:48:29;;;;;;;3.85;2.10;;;13.00;99.90;;;;;;5016875;28;20062;-80
2022/09/23 08:51:02;;;;;;;2.60;1.70;;;13.10;99.90;;;;;;5010463;28;20110;-80
2022/09/23 08:53:35;;;;;;;3.00;2.10;;;13.20;99.90;;;;;;5024609;28;20046;-80
2022/09/23 08:56:08;;;;;;;3.47;2.13;;;13.30;99.90;;;;;;5021409;28;20121;-80
2022/09/23 08:58:50;;;;;;;5.30;2.00;;;13.40;99.90;;;;;;5021335;28;20061;-80
2022/09/23 09:01:42;;;;;;;2.13;1.85;;;13.50;99.90;;;;;;5011669;28;20709;-80
2022/09/23 09:04:15;;;;;;;5.25;2.08;;;13.60;99.90;;;;;;5038414;28;20507;-80
2022/09/23 09:07:13;;;;;;;2.88;1.85;;;13.70;99.90;;;;;;5006856;28;20050;-80
2022/09/23 09:10:17;;;;;;;3.20;1.98;;;13.80;99.90;;;;;;5012434;28;20046;-80
2022/09/23 09:12:47;;;;;;;4.30;2.03;;;13.90;99.90;;;;;;5012880;28;20046;-80
2022/09/23 09:15:18;;;;;;;2.40;1.70;;;14.00;99.90;;;;;;5022561;28;20050;-80
2022/09/23 09:18:01;;;;;;;10.75;1.90;;;14.00;99.90;;;;;;5017486;28;20281;-79
2022/09/23 09:20:48;;;;;;;3.28;1.80;;;14.10;99.90;;;;;;4996364;28;20137;-80
2022/09/23 09:23:21;;;;;;;5.63;1.98;;;14.10;99.90;;;;;;5012338;28;20117;-80
2022/09/23 09:25:51;;;;;;;3.97;1.50;;;14.20;99.90;;;;;;5022869;28;20054;-80
2022/09/23 09:28:29;;;;;;;4.35;1.77;;;14.20;99.90;;;;;;5017120;28;20058;-80
2022/09/23 09:31:00;;;;;;;3.63;1.77;;;14.40;99.90;;;;;;5020894;28;20045;-79
2022/09/23 09:33:35;;;;;;;3.38;1.90;;;14.40;99.90;;;;;;5025003;28;20069;-81
2022/09/23 09:36:22;;;;;;;3.45;1.73;;;14.40;99.90;;;;;;5023319;28;20041;-80
2022/09/23 09:38:50;;;;;;;3.42;1.63;;;14.50;99.90;;;;;;5016654;28;20105;-81
2022/09/23 09:41:20;;;;;;;2.22;1.52;;;14.60;99.90;;;;;;5022082;28;20049;-81
2022/09/23 09:43:55;;;;;;;5.25;2.20;;;14.60;99.90;;;;;;5030111;28;20053;-81
2022/09/23 09:46:43;;;;;;;3.42;1.77;;;14.70;99.90;;;;;;5009337;28;20105;-80
2022/09/23 09:49:40;;;;;;;2.47;1.85;;;14.80;99.90;;;;;;5017049;28;20050;-81
2022/09/23 09:52:28;;;;;;;4.97;2.15;;;14.80;99.90;;;;;;5019592;28;20124;-81
2022/09/23 09:55:14;;;;;;;4.70;1.75;;;14.90;99.90;;;;;;5013817;28;20046;-80
2022/09/23 09:57:51;;;;;;;3.42;1.90;;;15.00;99.90;;;;;;5011270;28;20077;-81
2022/09/23 10:00:20;;;;;;;4.63;1.85;;;15.00;99.90;;;;;;5014427;28;20049;-81
2022/09/23 10:03:01;;;;;;;7.20;1.97;;;15.00;99.90;;;;;;5010364;28;20054;-81
2022/09/23 10:05:41;;;;;;;6.28;2.30;;;15.10;99.90;;;;;;5018014;28;20308;-81
2022/09/23 10:08:28;;;;;;;3.30;1.88;;;15.20;99.90;;;;;;5013369;28;20050;-81
2022/09/23 10:10:58;;;;;;;4.20;2.30;;;15.20;99.90;;;;;;5021908;28;20057;-80
2022/09/23 10:13:28;;;;;;;2.67;2.10;;;15.30;99.90;;;;;;5042716;28;20072;-81
2022/09/23 10:15:59;;;;;;;3.20;2.08;;;15.40;99.90;;;;;;5012493;28;20125;-80
2022/09/23 10:18:55;;;;;;;4.85;2.38;;;15.60;99.90;;;;;;5023324;28;20054;-80
2022/09/23 10:21:24;;;;;;;7.38;2.17;;;15.60;99.90;;;;;;5016776;28;20057;-80
2022/09/23 10:24:00;;;;;;;4.85;2.13;;;15.60;99.90;;;;;;5013178;28;20060;-80
2022/09/23 10:26:31;;;;;;;5.28;2.35;;;15.60;99.90;;;;;;5016813;28;20046;-80
2022/09/23 10:29:02;;;;;;;3.53;1.70;;;15.60;99.90;;;;;;5022274;28;20073;-80
2022/09/23 10:31:34;;;;;;;6.43;2.28;;;15.70;99.90;;;;;;5008179;28;20058;-80
2022/09/23 10:34:19;;;;;;;3.35;1.75;;;15.70;99.90;;;;;;5022577;28;20566;-79
2022/09/23 10:37:00;;;;;;;6.88;1.65;;;15.90;99.90;;;;;;5031212;28;20060;-81
2022/09/23 10:48:46;;;;;;;3.50;1.55;;;16.00;99.90;;;;;;5020076;28;20074;-79
2022/09/23 10:51:37;;;;;;;3.60;1.75;;;16.20;99.90;;;;;;5027585;28;20125;-80
2022/09/23 10:54:19;;;;;;;2.60;1.38;;;16.20;99.90;;;;;;5028741;28;20046;-81
2022/09/23 10:56:53;;;;;;;3.95;1.60;;;16.20;99.90;;;;;;5025305;28;20118;-80
2022/09/23 10:59:43;;;;;;;8.50;2.47;;;16.40;99.90;;;;;;5028310;28;20054;-80
2022/09/23 11:02:36;;;;;;;2.85;1.75;;;16.40;99.90;;;;;;5022571;28;20069;-82
2022/09/23 11:05:10;;;;;;;4.20;1.70;;;16.40;99.90;;;;;;4991755;28;20111;-80
2022/09/23 11:07:44;;;;;;;3.25;1.92;;;16.50;99.90;;;;;;5011981;28;20082;-78
2022/09/23 11:10:30;;;;;;;3.92;2.05;;;16.50;99.90;;;;;;5028396;28;20078;-79
2022/09/23 11:13:14;;;;;;;6.50;1.90;;;16.60;99.90;;;;;;5016669;28;20097;-82
2022/09/23 11:15:49;;;;;;;4.63;2.00;;;16.60;99.90;;;;;;5031164;28;20053;-79
2022/09/23 11:18:52;;;;;;;3.22;1.90;;;16.60;99.90;;;;;;5017485;28;20048;-80
2022/09/23 11:21:44;;;;;;;5.78;2.00;;;16.70;99.90;;;;;;5019780;28;20326;-80
2022/09/23 11:24:14;;;;;;;3.67;1.80;;;16.70;99.90;;;;;;5006575;28;20130;-80
2022/09/23 11:26:57;;;;;;;4.32;1.77;;;16.80;99.90;;;;;;5013347;28;20046;-81
2022/09/23 11:30:00;;;;;;;11.32;2.15;;;16.80;99.90;;;;;;5007515;28;20085;-81
2022/09/23 11:32:47;;;;;;;4.90;1.98;;;16.90;99.90;;;;;;5005730;28;20154;-80
2022/09/23 11:35:20;;;;;;;7.63;2.10;;;17.00;99.90;;;;;;5012787;28;20069;-81
2022/09/23 11:38:13;;;;;;;5.65;2.20;;;17.00;99.90;;;;;;5015432;28;20064;-82
2022/09/23 11:40:44;;;;;;;6.32;2.22;;;17.00;99.90;;;;;;5004182;28;20136;-80
2022/09/23 11:43:22;;;;;;;4.05;2.00;;;17.10;99.90;;;;;;5011925;28;20057;-82
2022/09/23 11:46:08;;;;;;;3.92;2.20;;;17.10;99.90;;;;;;5024865;28;20049;-81
2022/09/23 11:48:49;;;;;;;6.05;1.90;;;17.10;99.90;;;;;;5003276;28;20049;-80
2022/09/23 11:51:23;;;;;;;3.25;1.88;;;17.20;99.90;;;;;;5005848;28;20348;-81
2022/09/23 11:54:00;;;;;;;6.18;1.80;;;17.20;99.90;;;;;;5008781;28;20050;-80
2022/09/23 11:56:37;;;;;;;5.65;2.80;;;17.30;99.90;;;;;;5014222;28;20076;-80
2022/09/23 11:59:17;;;;;;;5.80;2.38;;;17.30;99.90;;;;;;5021200;28;20074;-80
2022/09/23 12:02:17;;;;;;;4.97;2.20;;;17.40;99.90;;;;;;5010287;28;20053;-79
2022/09/23 12:04:56;;;;;;;5.00;2.03;;;17.40;99.90;;;;;;5010678;28;20148;-80
2022/09/23 12:07:43;;;;;;;3.15;2.03;;;17.50;99.90;;;;;;5013247;28;20049;-81
2022/09/23 12:10:11;;;;;;;7.43;2.22;;;17.60;99.90;;;;;;5001142;28;20493;-81
2022/09/23 12:12:52;;;;;;;5.40;2.10;;;17.70;99.90;;;;;;5026343;28;20073;-80
2022/09/23 12:15:38;;;;;;;3.58;1.80;;;17.70;99.90;;;;;;5009221;28;20511;-81
2022/09/23 12:18:29;;;;;;;3.72;1.90;;;17.80;99.90;;;;;;5004901;28;20080;-81
2022/09/23 12:20:59;;;;;;;4.97;1.77;;;17.90;99.90;;;;;;4996399;28;20058;-80
2022/09/23 12:23:55;;;;;;;4.07;1.80;;;18.00;99.90;;;;;;5001448;28;20060;-82
2022/09/23 12:26:26;;;;;;;3.03;1.60;;;18.00;99.90;;;;;;5011851;28;20086;-82
2022/09/23 12:28:57;;;;;;;;;;;18.00;99.90;;;;;;5012250;28;20068;-82
2022/09/23 12:31:29;;;;;;;7.32;1.92;;;18.10;99.90;;;;;;5002296;28;19928;-81
2022/09/23 12:34:15;;;;;;;4.93;1.50;;;18.10;99.90;;;;;;4984290;28;20092;-82
2022/09/23 12:36:42;;;;;;;4.25;1.45;;;18.10;99.90;;;;;;5007911;28;20050;-82
2022/09/23 12:39:18;;;;;;;4.55;1.58;;;18.20;99.90;;;;;;5013648;28;20521;-82
2022/09/23 12:41:53;;;;;;;2.88;1.50;;;18.30;99.90;;;;;;5014444;28;20061;-82
2022/09/23 12:44:35;;;;;;;3.50;1.95;;;18.40;99.90;;;;;;5012779;28;20088;-82
2022/09/23 12:47:19;;;;;;;5.22;1.55;;;18.40;99.90;;;;;;5010534;28;20073;-82
2022/09/23 12:49:49;;;;;;;3.83;1.50;;;18.50;99.90;;;;;;5004205;28;20047;-81
2022/09/23 12:52:16;;;;;;;5.03;1.75;;;18.70;99.90;;;;;;5000809;28;20066;-81
2022/09/23 12:54:54;;;;;;;4.07;1.98;;;18.70;99.90;;;;;;5026749;28;20054;-82
2022/09/23 12:57:33;;;;;;;5.97;1.70;;;18.80;99.90;;;;;;5003917;28;20063;-84
2022/09/23 13:00:10;;;;;;;6.25;1.88;;;18.80;99.90;;;;;;5017620;28;20058;-84
2022/09/23 13:02:39;;;;;;;6.03;1.90;;;18.90;99.90;;;;;;5024538;28;20046;-82
2022/09/23 13:08:19;;;;;;;5.05;2.00;;;19.00;99.90;;;;;;5006366;28;20077;-81
2022/09/23 13:10:55;;;;;;;3.55;1.40;;;19.10;99.90;;;;;;5012270;28;20648;-81
2022/09/23 13:13:37;;;;;;;9.00;1.83;;;19.10;99.90;;;;;;4998589;28;20049;-81
2022/09/23 13:16:34;;;;;;;2.92;1.67;;;19.20;99.90;;;;;;5014846;28;20046;-81
2022/09/23 13:19:03;;;;;;;3.60;1.60;;;19.40;99.90;;;;;;5005576;28;20065;-82
2022/09/23 13:21:45;;;;;;;5.78;1.80;;;19.40;99.90;;;;;;5030682;28;20138;-82
2022/09/23 13:24:12;;;;;;;4.70;1.70;;;19.40;99.90;;;;;;5013310;28;20517;-82
2022/09/23 13:26:44;;;;;;;7.57;1.40;;;19.60;99.90;;;;;;5006643;28;20045;-83
2022/09/23 13:29:26;;;;;;;4.15;1.52;;;19.60;99.90;;;;;;5016991;28;20048;-82
2022/09/23 13:31:55;;;;;;;4.40;1.73;;;19.70;99.90;;;;;;5014804;28;20053;-82
2022/09/23 13:34:25;;;;;;;3.65;2.25;;;19.80;99.90;;;;;;5018522;28;20052;-80
2022/09/23 13:36:52;;;;;;;4.72;1.73;;;19.70;99.90;;;;;;5016147;28;20050;-80
2022/09/23 13:39:24;;;;;;;5.13;1.70;;;19.80;99.90;;;;;;5005397;28;20133;-79
2022/09/23 13:42:00;;;;;;;3.88;1.92;;;19.80;99.90;;;;;;4997165;28;20060;-79